sensor_id;sensor_type;location;lat;lon;timestamp;P1;durP1;ratioP1;P2;durP2;ratioP2
20185;SDS011;10252;48.792;8.582;2022-12-07T00:01:48;13.55;;;8.02;;
20185;SDS011;10252;48.792;8.582;2022-12-07T00:06:52;11.52;;;7.45;;
20185;SDS011;10252;48.792;8.582;2022-12-07T00:11:53;10.52;;;7.15;;
20185;SDS011;10252;48.792;8.582;2022-12-07T00:16:54;11.63;;;6.82;;
20185;SDS011;10252;48.792;8.582;2022-12-07T00:21:55;11.15;;;7.60;;
20185;SDS011;10252;48.792;8.582;2022-12-07T00:26:56;10.32;;;6.55;;
20185;SDS011;10252;48.792;8.582;2022-12-07T00:31:57;10.98;;;7.72;;
20185;SDS011;10252;48.792;8.582;2022-12-07T00:36:58;12.43;;;8.13;;
20185;SDS011;10252;48.792;8.582;2022-12-07T00:41:59;11.98;;;7.82;;
20185;SDS011;10252;48.792;8.582;2022-12-07T00:47:00;11.30;;;7.53;;
20185;SDS011;10252;48.792;8.582;2022-12-07T00:52:01;9.20;;;7.20;;
20185;SDS011;10252;48.792;8.582;2022-12-07T00:57:03;13.60;;;7.43;;
20185;SDS011;10252;48.792;8.582;2022-12-07T01:02:04;9.32;;;6.60;;
20185;SDS011;10252;48.792;8.582;2022-12-07T01:07:05;8.73;;;6.10;;
20185;SDS011;10252;48.792;8.582;2022-12-07T01:12:06;9.35;;;6.55;;
20185;SDS011;10252;48.792;8.582;2022-12-07T01:17:07;11.85;;;6.97;;
20185;SDS011;10252;48.792;8.582;2022-12-07T01:22:08;10.45;;;6.40;;
20185;SDS011;10252;48.792;8.582;2022-12-07T01:27:09;9.82;;;6.32;;
20185;SDS011;10252;48.792;8.582;2022-12-07T01:32:10;9.82;;;6.00;;
20185;SDS011;10252;48.792;8.582;2022-12-07T01:37:11;8.13;;;4.97;;
20185;SDS011;10252;48.792;8.582;2022-12-07T01:42:12;7.05;;;5.32;;
20185;SDS011;10252;48.792;8.582;2022-12-07T01:47:13;9.23;;;6.43;;
20185;SDS011;10252;48.792;8.582;2022-12-07T01:52:18;8.07;;;5.82;;
20185;SDS011;10252;48.792;8.582;2022-12-07T01:57:20;7.60;;;5.05;;
20185;SDS011;10252;48.792;8.582;2022-12-07T02:02:32;7.30;;;5.28;;
20185;SDS011;10252;48.792;8.582;2022-12-07T02:07:34;9.30;;;5.88;;
20185;SDS011;10252;48.792;8.582;2022-12-07T02:12:36;7.78;;;5.43;;
20185;SDS011;10252;48.792;8.582;2022-12-07T02:17:41;10.73;;;6.00;;
20185;SDS011;10252;48.792;8.582;2022-12-07T02:33:07;8.48;;;5.43;;
20185;SDS011;10252;48.792;8.582;2022-12-07T02:38:20;9.07;;;6.15;;
20185;SDS011;10252;48.792;8.582;2022-12-07T02:43:28;10.10;;;6.47;;
20185;SDS011;10252;48.792;8.582;2022-12-07T02:48:31;9.55;;;6.70;;
20185;SDS011;10252;48.792;8.582;2022-12-07T02:53:37;10.43;;;6.57;;
20185;SDS011;10252;48.792;8.582;2022-12-07T02:58:46;9.95;;;6.53;;
20185;SDS011;10252;48.792;8.582;2022-12-07T03:03:56;9.38;;;5.13;;
20185;SDS011;10252;48.792;8.582;2022-12-07T03:09:12;9.05;;;5.97;;
20185;SDS011;10252;48.792;8.582;2022-12-07T03:14:22;9.23;;;5.72;;
20185;SDS011;10252;48.792;8.582;2022-12-07T03:19:24;7.53;;;6.28;;
20185;SDS011;10252;48.792;8.582;2022-12-07T03:24:27;10.20;;;5.68;;
20185;SDS011;10252;48.792;8.582;2022-12-07T03:29:31;8.20;;;5.32;;
20185;SDS011;10252;48.792;8.582;2022-12-07T03:34:38;13.30;;;6.97;;
20185;SDS011;10252;48.792;8.582;2022-12-07T03:39:45;13.20;;;7.38;;
20185;SDS011;10252;48.792;8.582;2022-12-07T03:44:51;12.68;;;7.35;;
20185;SDS011;10252;48.792;8.582;2022-12-07T03:49:53;15.02;;;8.40;;
20185;SDS011;10252;48.792;8.582;2022-12-07T03:54:57;13.27;;;7.80;;
20185;SDS011;10252;48.792;8.582;2022-12-07T04:00:00;12.63;;;8.02;;
20185;SDS011;10252;48.792;8.582;2022-12-07T04:05:02;10.68;;;6.45;;
20185;SDS011;10252;48.792;8.582;2022-12-07T04:10:04;13.00;;;7.38;;
20185;SDS011;10252;48.792;8.582;2022-12-07T04:15:05;10.23;;;6.57;;
20185;SDS011;10252;48.792;8.582;2022-12-07T04:20:07;10.63;;;5.93;;
20185;SDS011;10252;48.792;8.582;2022-12-07T04:25:08;10.85;;;5.68;;
20185;SDS011;10252;48.792;8.582;2022-12-07T04:30:09;12.05;;;6.03;;
20185;SDS011;10252;48.792;8.582;2022-12-07T04:35:10;9.50;;;6.00;;
20185;SDS011;10252;48.792;8.582;2022-12-07T04:40:11;6.55;;;4.22;;
20185;SDS011;10252;48.792;8.582;2022-12-07T04:45:14;8.77;;;4.57;;
20185;SDS011;10252;48.792;8.582;2022-12-07T04:50:15;6.97;;;4.30;;
20185;SDS011;10252;48.792;8.582;2022-12-07T04:55:16;8.05;;;4.57;;
20185;SDS011;10252;48.792;8.582;2022-12-07T05:00:17;5.38;;;3.38;;
20185;SDS011;10252;48.792;8.582;2022-12-07T05:05:18;5.93;;;3.88;;
20185;SDS011;10252;48.792;8.582;2022-12-07T05:10:19;6.05;;;3.70;;
20185;SDS011;10252;48.792;8.582;2022-12-07T05:15:20;6.22;;;4.40;;
20185;SDS011;10252;48.792;8.582;2022-12-07T05:20:21;6.47;;;3.45;;
20185;SDS011;10252;48.792;8.582;2022-12-07T05:25:22;8.13;;;4.00;;
20185;SDS011;10252;48.792;8.582;2022-12-07T05:30:24;8.27;;;5.18;;
20185;SDS011;10252;48.792;8.582;2022-12-07T05:35:25;7.95;;;5.22;;
20185;SDS011;10252;48.792;8.582;2022-12-07T05:40:26;11.10;;;6.95;;
20185;SDS011;10252;48.792;8.582;2022-12-07T05:45:27;7.90;;;5.15;;
20185;SDS011;10252;48.792;8.582;2022-12-07T05:50:28;9.27;;;5.35;;
20185;SDS011;10252;48.792;8.582;2022-12-07T05:55:35;7.45;;;4.70;;
20185;SDS011;10252;48.792;8.582;2022-12-07T06:00:36;18.20;;;10.30;;
20185;SDS011;10252;48.792;8.582;2022-12-07T06:05:37;13.98;;;8.43;;
20185;SDS011;10252;48.792;8.582;2022-12-07T06:10:38;13.43;;;7.55;;
20185;SDS011;10252;48.792;8.582;2022-12-07T06:15:39;13.57;;;8.27;;
20185;SDS011;10252;48.792;8.582;2022-12-07T06:20:40;13.65;;;7.15;;
20185;SDS011;10252;48.792;8.582;2022-12-07T06:25:44;9.98;;;6.22;;
20185;SDS011;10252;48.792;8.582;2022-12-07T06:30:45;10.85;;;6.55;;
20185;SDS011;10252;48.792;8.582;2022-12-07T06:35:46;23.95;;;11.23;;
20185;SDS011;10252;48.792;8.582;2022-12-07T06:40:47;12.82;;;6.95;;
20185;SDS011;10252;48.792;8.582;2022-12-07T06:45:49;12.43;;;7.60;;
20185;SDS011;10252;48.792;8.582;2022-12-07T06:50:50;15.23;;;8.05;;
20185;SDS011;10252;48.792;8.582;2022-12-07T06:55:51;11.65;;;8.25;;
20185;SDS011;10252;48.792;8.582;2022-12-07T07:00:53;10.88;;;6.88;;
20185;SDS011;10252;48.792;8.582;2022-12-07T07:05:54;14.98;;;8.77;;
20185;SDS011;10252;48.792;8.582;2022-12-07T07:10:55;14.88;;;8.63;;
20185;SDS011;10252;48.792;8.582;2022-12-07T07:15:56;16.77;;;10.30;;
20185;SDS011;10252;48.792;8.582;2022-12-07T07:20:57;15.27;;;9.57;;
20185;SDS011;10252;48.792;8.582;2022-12-07T07:25:58;11.23;;;7.30;;
20185;SDS011;10252;48.792;8.582;2022-12-07T07:30:59;14.07;;;8.43;;
20185;SDS011;10252;48.792;8.582;2022-12-07T07:36:00;10.68;;;7.13;;
20185;SDS011;10252;48.792;8.582;2022-12-07T07:41:01;8.52;;;5.85;;
20185;SDS011;10252;48.792;8.582;2022-12-07T07:46:02;10.75;;;7.25;;
20185;SDS011;10252;48.792;8.582;2022-12-07T07:51:06;14.27;;;7.88;;
20185;SDS011;10252;48.792;8.582;2022-12-07T07:56:08;20.08;;;11.93;;
20185;SDS011;10252;48.792;8.582;2022-12-07T08:01:09;24.48;;;14.05;;
20185;SDS011;10252;48.792;8.582;2022-12-07T08:06:10;15.65;;;10.05;;
20185;SDS011;10252;48.792;8.582;2022-12-07T08:11:11;14.57;;;10.35;;
20185;SDS011;10252;48.792;8.582;2022-12-07T08:16:12;16.92;;;10.27;;
20185;SDS011;10252;48.792;8.582;2022-12-07T08:21:15;15.15;;;10.02;;
20185;SDS011;10252;48.792;8.582;2022-12-07T08:26:16;15.80;;;9.60;;
20185;SDS011;10252;48.792;8.582;2022-12-07T08:31:18;12.40;;;8.43;;
20185;SDS011;10252;48.792;8.582;2022-12-07T08:36:19;10.73;;;6.47;;
20185;SDS011;10252;48.792;8.582;2022-12-07T08:41:21;11.02;;;7.43;;
20185;SDS011;10252;48.792;8.582;2022-12-07T08:46:26;11.27;;;6.93;;
20185;SDS011;10252;48.792;8.582;2022-12-07T08:51:29;11.82;;;6.32;;
20185;SDS011;10252;48.792;8.582;2022-12-07T08:56:31;11.30;;;7.70;;
20185;SDS011;10252;48.792;8.582;2022-12-07T09:01:32;13.07;;;8.52;;
20185;SDS011;10252;48.792;8.582;2022-12-07T09:06:33;8.52;;;5.70;;
20185;SDS011;10252;48.792;8.582;2022-12-07T09:11:34;16.00;;;9.60;;
20185;SDS011;10252;48.792;8.582;2022-12-07T09:16:35;10.38;;;7.45;;
20185;SDS011;10252;48.792;8.582;2022-12-07T09:21:36;14.43;;;9.02;;
20185;SDS011;10252;48.792;8.582;2022-12-07T09:26:37;30.23;;;15.27;;
20185;SDS011;10252;48.792;8.582;2022-12-07T09:31:40;18.30;;;11.60;;
20185;SDS011;10252;48.792;8.582;2022-12-07T09:36:41;6.25;;;4.68;;
20185;SDS011;10252;48.792;8.582;2022-12-07T09:41:43;5.75;;;3.85;;
20185;SDS011;10252;48.792;8.582;2022-12-07T09:46:45;7.55;;;4.80;;
20185;SDS011;10252;48.792;8.582;2022-12-07T09:51:46;6.43;;;3.42;;
20185;SDS011;10252;48.792;8.582;2022-12-07T09:56:48;4.90;;;3.00;;
20185;SDS011;10252;48.792;8.582;2022-12-07T10:01:49;4.10;;;2.97;;
20185;SDS011;10252;48.792;8.582;2022-12-07T10:06:51;4.15;;;3.17;;
20185;SDS011;10252;48.792;8.582;2022-12-07T10:17:02;4.70;;;3.30;;
20185;SDS011;10252;48.792;8.582;2022-12-07T10:22:11;2.97;;;2.20;;
20185;SDS011;10252;48.792;8.582;2022-12-07T10:27:19;4.25;;;2.20;;
20185;SDS011;10252;48.792;8.582;2022-12-07T10:32:27;2.28;;;1.90;;
20185;SDS011;10252;48.792;8.582;2022-12-07T10:37:29;3.53;;;2.45;;
20185;SDS011;10252;48.792;8.582;2022-12-07T10:42:40;3.55;;;2.67;;
20185;SDS011;10252;48.792;8.582;2022-12-07T11:03:15;3.72;;;2.83;;
20185;SDS011;10252;48.792;8.582;2022-12-07T11:13:44;3.83;;;2.95;;
20185;SDS011;10252;48.792;8.582;2022-12-07T11:19:06;4.45;;;3.10;;
20185;SDS011;10252;48.792;8.582;2022-12-07T11:24:18;7.35;;;4.07;;
20185;SDS011;10252;48.792;8.582;2022-12-07T11:29:34;7.45;;;4.95;;
20185;SDS011;10252;48.792;8.582;2022-12-07T11:39:52;17.10;;;8.55;;
20185;SDS011;10252;48.792;8.582;2022-12-07T11:44:56;12.13;;;7.70;;
20185;SDS011;10252;48.792;8.582;2022-12-07T11:55:21;16.02;;;9.57;;
20185;SDS011;10252;48.792;8.582;2022-12-07T12:00:24;15.45;;;8.68;;
20185;SDS011;10252;48.792;8.582;2022-12-07T12:05:25;16.13;;;9.75;;
20185;SDS011;10252;48.792;8.582;2022-12-07T12:15:38;13.63;;;8.68;;
20185;SDS011;10252;48.792;8.582;2022-12-07T12:20:51;17.55;;;10.23;;
20185;SDS011;10252;48.792;8.582;2022-12-07T12:26:03;17.65;;;10.35;;
20185;SDS011;10252;48.792;8.582;2022-12-07T12:31:10;15.55;;;9.48;;
20185;SDS011;10252;48.792;8.582;2022-12-07T12:51:40;18.50;;;9.48;;
20185;SDS011;10252;48.792;8.582;2022-12-07T13:07:02;12.15;;;7.65;;
20185;SDS011;10252;48.792;8.582;2022-12-07T13:12:04;11.88;;;6.97;;
20185;SDS011;10252;48.792;8.582;2022-12-07T13:17:09;10.07;;;6.93;;
20185;SDS011;10252;48.792;8.582;2022-12-07T13:22:56;11.38;;;7.40;;
20185;SDS011;10252;48.792;8.582;2022-12-07T13:27:39;10.27;;;6.97;;
20185;SDS011;10252;48.792;8.582;2022-12-07T13:32:40;10.50;;;7.15;;
20185;SDS011;10252;48.792;8.582;2022-12-07T13:37:41;11.43;;;7.57;;
20185;SDS011;10252;48.792;8.582;2022-12-07T13:42:43;11.75;;;7.45;;
20185;SDS011;10252;48.792;8.582;2022-12-07T13:47:46;10.00;;;7.00;;
20185;SDS011;10252;48.792;8.582;2022-12-07T13:52:50;16.42;;;14.73;;
20185;SDS011;10252;48.792;8.582;2022-12-07T13:57:52;9.45;;;6.43;;
20185;SDS011;10252;48.792;8.582;2022-12-07T14:02:55;11.95;;;6.82;;
20185;SDS011;10252;48.792;8.582;2022-12-07T14:08:01;6.97;;;5.10;;
20185;SDS011;10252;48.792;8.582;2022-12-07T14:13:17;9.95;;;5.95;;
20185;SDS011;10252;48.792;8.582;2022-12-07T14:18:57;10.85;;;7.10;;
20185;SDS011;10252;48.792;8.582;2022-12-07T14:29:20;12.15;;;7.15;;
20185;SDS011;10252;48.792;8.582;2022-12-07T14:34:22;16.13;;;7.70;;
20185;SDS011;10252;48.792;8.582;2022-12-07T14:39:23;17.17;;;9.07;;
20185;SDS011;10252;48.792;8.582;2022-12-07T14:44:24;16.30;;;9.40;;
20185;SDS011;10252;48.792;8.582;2022-12-07T14:49:25;14.45;;;8.32;;
20185;SDS011;10252;48.792;8.582;2022-12-07T14:54:26;17.20;;;10.07;;
20185;SDS011;10252;48.792;8.582;2022-12-07T14:59:28;16.50;;;9.38;;
20185;SDS011;10252;48.792;8.582;2022-12-07T15:04:29;15.80;;;9.60;;
20185;SDS011;10252;48.792;8.582;2022-12-07T15:09:30;24.75;;;10.55;;
20185;SDS011;10252;48.792;8.582;2022-12-07T15:14:31;15.82;;;8.88;;
20185;SDS011;10252;48.792;8.582;2022-12-07T15:19:32;16.40;;;8.95;;
20185;SDS011;10252;48.792;8.582;2022-12-07T15:24:33;14.27;;;8.60;;
20185;SDS011;10252;48.792;8.582;2022-12-07T15:29:34;15.82;;;8.88;;
20185;SDS011;10252;48.792;8.582;2022-12-07T15:34:35;19.27;;;10.07;;
20185;SDS011;10252;48.792;8.582;2022-12-07T15:39:36;16.77;;;9.30;;
20185;SDS011;10252;48.792;8.582;2022-12-07T15:44:37;21.75;;;12.88;;
20185;SDS011;10252;48.792;8.582;2022-12-07T15:49:57;17.73;;;9.32;;
20185;SDS011;10252;48.792;8.582;2022-12-07T15:54:59;16.60;;;9.63;;
20185;SDS011;10252;48.792;8.582;2022-12-07T16:00:00;18.55;;;11.35;;
20185;SDS011;10252;48.792;8.582;2022-12-07T16:05:04;15.02;;;9.52;;
20185;SDS011;10252;48.792;8.582;2022-12-07T16:10:05;17.30;;;9.15;;
20185;SDS011;10252;48.792;8.582;2022-12-07T16:15:06;12.07;;;7.43;;
20185;SDS011;10252;48.792;8.582;2022-12-07T16:20:08;12.20;;;8.38;;
20185;SDS011;10252;48.792;8.582;2022-12-07T16:25:09;12.77;;;7.20;;
20185;SDS011;10252;48.792;8.582;2022-12-07T16:30:11;9.55;;;6.55;;
20185;SDS011;10252;48.792;8.582;2022-12-07T16:35:12;8.90;;;6.43;;
20185;SDS011;10252;48.792;8.582;2022-12-07T16:40:14;11.70;;;7.28;;
20185;SDS011;10252;48.792;8.582;2022-12-07T16:45:15;11.00;;;5.78;;
20185;SDS011;10252;48.792;8.582;2022-12-07T16:50:16;10.48;;;6.68;;
20185;SDS011;10252;48.792;8.582;2022-12-07T16:55:17;10.00;;;6.40;;
20185;SDS011;10252;48.792;8.582;2022-12-07T17:00:18;10.20;;;6.50;;
20185;SDS011;10252;48.792;8.582;2022-12-07T17:05:19;10.63;;;6.60;;
20185;SDS011;10252;48.792;8.582;2022-12-07T17:10:21;10.07;;;6.95;;
20185;SDS011;10252;48.792;8.582;2022-12-07T17:15:22;10.05;;;6.90;;
20185;SDS011;10252;48.792;8.582;2022-12-07T17:20:24;9.15;;;5.63;;
20185;SDS011;10252;48.792;8.582;2022-12-07T17:25:25;13.43;;;7.78;;
20185;SDS011;10252;48.792;8.582;2022-12-07T17:30:26;15.88;;;6.47;;
20185;SDS011;10252;48.792;8.582;2022-12-07T17:35:27;10.63;;;6.38;;
20185;SDS011;10252;48.792;8.582;2022-12-07T17:40:28;15.77;;;7.10;;
20185;SDS011;10252;48.792;8.582;2022-12-07T17:45:29;8.95;;;5.15;;
20185;SDS011;10252;48.792;8.582;2022-12-07T17:50:31;9.73;;;5.47;;
20185;SDS011;10252;48.792;8.582;2022-12-07T17:55:52;12.45;;;6.55;;
20185;SDS011;10252;48.792;8.582;2022-12-07T18:00:53;9.70;;;5.78;;
20185;SDS011;10252;48.792;8.582;2022-12-07T18:05:54;16.48;;;9.82;;
20185;SDS011;10252;48.792;8.582;2022-12-07T18:10:58;15.57;;;10.02;;
20185;SDS011;10252;48.792;8.582;2022-12-07T18:15:59;27.45;;;13.18;;
20185;SDS011;10252;48.792;8.582;2022-12-07T18:21:01;12.00;;;7.28;;
20185;SDS011;10252;48.792;8.582;2022-12-07T18:26:03;16.33;;;7.95;;
20185;SDS011;10252;48.792;8.582;2022-12-07T18:31:04;26.70;;;11.82;;
20185;SDS011;10252;48.792;8.582;2022-12-07T18:36:07;22.17;;;11.48;;
20185;SDS011;10252;48.792;8.582;2022-12-07T18:41:09;9.90;;;6.38;;
20185;SDS011;10252;48.792;8.582;2022-12-07T18:46:11;16.98;;;8.70;;
20185;SDS011;10252;48.792;8.582;2022-12-07T18:51:13;15.93;;;9.88;;
20185;SDS011;10252;48.792;8.582;2022-12-07T19:01:15;21.27;;;11.52;;
20185;SDS011;10252;48.792;8.582;2022-12-07T19:06:16;33.53;;;20.55;;
20185;SDS011;10252;48.792;8.582;2022-12-07T19:11:18;27.25;;;16.48;;
20185;SDS011;10252;48.792;8.582;2022-12-07T19:16:38;20.25;;;12.63;;
20185;SDS011;10252;48.792;8.582;2022-12-07T19:21:39;21.55;;;12.85;;
20185;SDS011;10252;48.792;8.582;2022-12-07T19:26:40;23.30;;;13.20;;
20185;SDS011;10252;48.792;8.582;2022-12-07T19:31:41;25.60;;;14.10;;
20185;SDS011;10252;48.792;8.582;2022-12-07T19:36:42;22.70;;;14.48;;
20185;SDS011;10252;48.792;8.582;2022-12-07T19:41:44;21.90;;;14.35;;
20185;SDS011;10252;48.792;8.582;2022-12-07T19:46:46;31.63;;;13.55;;
20185;SDS011;10252;48.792;8.582;2022-12-07T19:51:52;26.67;;;16.00;;
20185;SDS011;10252;48.792;8.582;2022-12-07T19:56:53;20.02;;;11.32;;
20185;SDS011;10252;48.792;8.582;2022-12-07T20:01:54;27.00;;;14.10;;
20185;SDS011;10252;48.792;8.582;2022-12-07T20:06:56;30.08;;;15.43;;
20185;SDS011;10252;48.792;8.582;2022-12-07T20:11:58;26.27;;;15.13;;
20185;SDS011;10252;48.792;8.582;2022-12-07T20:17:17;27.75;;;16.00;;
20185;SDS011;10252;48.792;8.582;2022-12-07T20:22:19;24.38;;;14.88;;
20185;SDS011;10252;48.792;8.582;2022-12-07T20:27:20;22.95;;;14.68;;
20185;SDS011;10252;48.792;8.582;2022-12-07T20:32:21;29.33;;;16.52;;
20185;SDS011;10252;48.792;8.582;2022-12-07T20:37:22;24.95;;;14.77;;
20185;SDS011;10252;48.792;8.582;2022-12-07T20:42:23;25.30;;;14.65;;
20185;SDS011;10252;48.792;8.582;2022-12-07T20:47:36;21.05;;;14.23;;
20185;SDS011;10252;48.792;8.582;2022-12-07T20:52:37;20.13;;;12.50;;
20185;SDS011;10252;48.792;8.582;2022-12-07T20:57:38;17.33;;;10.00;;
20185;SDS011;10252;48.792;8.582;2022-12-07T21:02:39;19.05;;;12.93;;
20185;SDS011;10252;48.792;8.582;2022-12-07T21:07:40;15.80;;;10.13;;
20185;SDS011;10252;48.792;8.582;2022-12-07T21:12:41;13.23;;;9.43;;
20185;SDS011;10252;48.792;8.582;2022-12-07T21:17:42;12.57;;;7.30;;
20185;SDS011;10252;48.792;8.582;2022-12-07T21:22:43;19.20;;;11.68;;
20185;SDS011;10252;48.792;8.582;2022-12-07T21:27:46;10.77;;;6.38;;
20185;SDS011;10252;48.792;8.582;2022-12-07T21:32:47;13.23;;;8.73;;
20185;SDS011;10252;48.792;8.582;2022-12-07T21:37:48;11.43;;;7.07;;
20185;SDS011;10252;48.792;8.582;2022-12-07T21:42:51;21.13;;;12.32;;
20185;SDS011;10252;48.792;8.582;2022-12-07T21:47:53;17.02;;;10.05;;
20185;SDS011;10252;48.792;8.582;2022-12-07T21:52:54;12.32;;;7.15;;
20185;SDS011;10252;48.792;8.582;2022-12-07T21:57:55;23.38;;;11.93;;
20185;SDS011;10252;48.792;8.582;2022-12-07T22:02:56;37.10;;;18.30;;
20185;SDS011;10252;48.792;8.582;2022-12-07T22:07:57;25.67;;;12.48;;
20185;SDS011;10252;48.792;8.582;2022-12-07T22:12:58;18.63;;;10.40;;
20185;SDS011;10252;48.792;8.582;2022-12-07T22:17:59;21.42;;;11.68;;
20185;SDS011;10252;48.792;8.582;2022-12-07T22:23:01;21.92;;;13.18;;
20185;SDS011;10252;48.792;8.582;2022-12-07T22:28:02;16.33;;;8.45;;
20185;SDS011;10252;48.792;8.582;2022-12-07T22:33:03;21.05;;;12.05;;
20185;SDS011;10252;48.792;8.582;2022-12-07T22:38:04;22.70;;;11.88;;
20185;SDS011;10252;48.792;8.582;2022-12-07T22:43:05;22.33;;;11.82;;
20185;SDS011;10252;48.792;8.582;2022-12-07T22:48:06;36.20;;;14.30;;
20185;SDS011;10252;48.792;8.582;2022-12-07T22:53:08;27.33;;;13.50;;
20185;SDS011;10252;48.792;8.582;2022-12-07T22:58:09;23.02;;;11.60;;
20185;SDS011;10252;48.792;8.582;2022-12-07T23:03:25;22.33;;;11.57;;
20185;SDS011;10252;48.792;8.582;2022-12-07T23:08:26;20.83;;;10.48;;
20185;SDS011;10252;48.792;8.582;2022-12-07T23:13:27;14.45;;;8.50;;
20185;SDS011;10252;48.792;8.582;2022-12-07T23:18:31;17.20;;;9.77;;
20185;SDS011;10252;48.792;8.582;2022-12-07T23:23:32;17.30;;;9.15;;
20185;SDS011;10252;48.792;8.582;2022-12-07T23:28:33;14.50;;;8.07;;
20185;SDS011;10252;48.792;8.582;2022-12-07T23:33:35;16.95;;;8.77;;
20185;SDS011;10252;48.792;8.582;2022-12-07T23:38:36;12.50;;;6.97;;
20185;SDS011;10252;48.792;8.582;2022-12-07T23:43:38;14.02;;;6.78;;
20185;SDS011;10252;48.792;8.582;2022-12-07T23:48:39;14.00;;;7.28;;
20185;SDS011;10252;48.792;8.582;2022-12-07T23:53:41;11.38;;;5.82;;
20185;SDS011;10252;48.792;8.582;2022-12-07T23:58:43;10.98;;;6.22;;
